Time;durP1;ratioP1;P1;durP2;ratioP2;P2;SDS_P1;SDS_P2;PMS_P1;PMS_P2;Temp;Humidity;BMP_temperature;BMP_pressure;BME280_temperature;BME280_humidity;BME280_pressure;Samples;Min_cycle;Max_cycle;Signal;HPM_P1;HPM_P2
2022/06/18 00:00:17;;;;;;;3.13;2.80;;;18.70;64.20;;;;;;5074817;28;20511;-63
2022/06/18 00:02:45;;;;;;;4.07;2.60;;;18.70;64.50;;;;;;5076971;28;20457;-62
2022/06/18 00:05:15;;;;;;;3.00;2.70;;;18.70;64.70;;;;;;5074528;28;20540;-63
2022/06/18 00:07:46;;;;;;;4.17;2.47;;;18.60;64.80;;;;;;5074168;28;20512;-63
2022/06/18 00:10:17;;;;;;;2.47;2.27;;;18.60;65.10;;;;;;5073903;28;20484;-62
2022/06/18 00:15:34;;;;;;;2.83;2.40;;;18.50;65.40;;;;;;5084276;28;20516;-62
2022/06/18 00:18:03;;;;;;;2.77;2.13;;;18.50;65.80;;;;;;5073579;28;20996;-61
2022/06/18 00:20:35;;;;;;;2.80;2.53;;;18.50;66.10;;;;;;5073493;28;20507;-62
2022/06/18 00:23:03;;;;;;;2.80;2.50;;;18.40;66.30;;;;;;5073739;28;20435;-61
2022/06/18 00:25:34;;;;;;;3.77;2.70;;;18.40;66.70;;;;;;5075527;28;20958;-61
2022/06/18 00:28:02;;;;;;;2.67;2.47;;;18.40;67.00;;;;;;5077448;28;20537;-62
2022/06/18 00:30:32;;;;;;;2.67;2.47;;;18.40;67.60;;;;;;5076902;28;20826;-62
2022/06/18 00:32:59;;;;;;;3.67;2.17;;;18.30;67.60;;;;;;5077116;28;21039;-61
2022/06/18 00:35:26;;;;;;;3.50;2.70;;;18.30;67.80;;;;;;5076920;28;20566;-62
2022/06/18 00:37:58;;;;;;;3.20;2.80;;;18.30;68.00;;;;;;5076783;28;20499;-63
2022/06/18 00:40:30;;;;;;;3.50;2.80;;;18.30;68.10;;;;;;5076731;28;20431;-61
2022/06/18 00:43:00;;;;;;;3.40;2.60;;;18.20;68.20;;;;;;5077330;28;20427;-61
2022/06/18 00:45:29;;;;;;;3.70;2.90;;;18.20;68.50;;;;;;5077052;28;20455;-62
2022/06/18 00:48:02;;;;;;;3.37;2.80;;;18.20;68.50;;;;;;5076539;28;20929;-62
2022/06/18 00:50:34;;;;;;;3.83;2.70;;;18.20;68.70;;;;;;5076501;28;20431;-63
2022/06/18 00:53:07;;;;;;;2.60;2.40;;;18.10;68.90;;;;;;5076870;28;20771;-62
2022/06/18 00:55:40;;;;;;;4.03;2.97;;;18.10;69.10;;;;;;5076575;28;20524;-63
2022/06/18 00:58:13;;;;;;;3.17;2.47;;;18.10;69.30;;;;;;5076854;28;20426;-63
2022/06/18 01:00:43;;;;;;;2.60;2.40;;;18.00;69.40;;;;;;5076377;28;20439;-63
2022/06/18 01:03:27;;;;;;;5.13;2.63;;;18.00;69.70;;;;;;5076671;28;20502;-61
2022/06/18 01:05:57;;;;;;;2.73;2.40;;;18.00;69.80;;;;;;5076358;28;20569;-62
2022/06/18 01:08:27;;;;;;;3.90;2.60;;;18.00;70.00;;;;;;5076816;28;20502;-62
2022/06/18 01:10:59;;;;;;;3.60;3.07;;;18.00;70.10;;;;;;5076666;28;20590;-62
2022/06/18 01:13:31;;;;;;;5.10;2.97;;;17.90;70.20;;;;;;5076346;28;20956;-62
2022/06/18 01:15:59;;;;;;;3.13;2.50;;;17.90;70.40;;;;;;5076673;28;20532;-62
2022/06/18 01:18:29;;;;;;;2.67;2.47;;;17.90;70.70;;;;;;5077766;28;20447;-62
2022/06/18 01:21:02;;;;;;;2.70;2.50;;;17.90;70.80;;;;;;5077347;28;20995;-63
2022/06/18 01:23:36;;;;;;;2.93;2.37;;;17.90;71.00;;;;;;5076835;28;20883;-61
2022/06/18 01:26:05;;;;;;;4.57;3.00;;;17.90;71.10;;;;;;5076794;28;20505;-61
2022/06/18 01:28:32;;;;;;;3.07;2.70;;;17.90;71.20;;;;;;5076180;28;20445;-61
2022/06/18 01:30:59;;;;;;;3.43;2.83;;;17.90;71.40;;;;;;5076131;28;20994;-62
2022/06/18 01:33:27;;;;;;;3.00;2.80;;;17.80;71.40;;;;;;5075860;28;20501;-62
2022/06/18 01:35:55;;;;;;;2.30;2.10;;;17.80;71.80;;;;;;5075766;28;20577;-60
2022/06/18 01:38:25;;;;;;;3.53;2.57;;;17.80;72.00;;;;;;5075350;28;20487;-62
2022/06/18 01:40:56;;;;;;;3.93;2.93;;;17.80;72.20;;;;;;5075887;28;20498;-62
2022/06/18 01:43:27;;;;;;;2.73;2.53;;;17.80;72.50;;;;;;5075619;28;20435;-63
2022/06/18 01:45:59;;;;;;;3.40;3.10;;;17.80;72.60;;;;;;5075684;28;20501;-62
2022/06/18 01:48:30;;;;;;;4.00;3.60;;;17.80;72.80;;;;;;5075710;28;20459;-61
2022/06/18 01:51:01;;;;;;;3.53;3.10;;;17.80;73.10;;;;;;5075742;28;20443;-62
2022/06/18 01:53:35;;;;;;;3.10;2.80;;;17.80;73.20;;;;;;5075371;28;20437;-61
2022/06/18 01:56:05;;;;;;;2.50;2.30;;;17.80;73.30;;;;;;5075423;28;20558;-61
2022/06/18 01:58:38;;;;;;;2.97;2.33;;;17.80;73.40;;;;;;5075700;28;20430;-63
2022/06/18 02:01:09;;;;;;;3.00;2.70;;;17.80;73.50;;;;;;5075635;28;20473;-62
2022/06/18 02:03:37;;;;;;;5.00;2.47;;;17.80;73.70;;;;;;5075474;28;20479;-62
2022/06/18 02:06:06;;;;;;;4.90;2.40;;;17.80;73.80;;;;;;5076378;28;20528;-62
2022/06/18 02:08:34;;;;;;;5.40;3.63;;;17.80;74.10;;;;;;5075654;28;20443;-63
2022/06/18 02:11:05;;;;;;;3.43;3.10;;;17.70;74.20;;;;;;5075575;28;20473;-62
2022/06/18 02:13:36;;;;;;;4.30;3.40;;;17.70;74.40;;;;;;5075135;28;20537;-62
2022/06/18 02:16:07;;;;;;;4.17;3.77;;;17.70;74.50;;;;;;5076075;28;20988;-62
2022/06/18 02:18:35;;;;;;;4.23;3.80;;;17.70;74.80;;;;;;5077634;28;20484;-62
2022/06/18 02:21:07;;;;;;;4.37;3.70;;;17.70;75.00;;;;;;5076302;28;20969;-63
2022/06/18 02:23:35;;;;;;;6.50;4.30;;;17.70;75.10;;;;;;5076525;28;20435;-63
2022/06/18 02:26:03;;;;;;;4.80;4.20;;;17.70;75.30;;;;;;5075847;28;20523;-63
2022/06/18 02:28:36;;;;;;;4.33;3.93;;;17.70;75.40;;;;;;5075896;28;20492;-63
2022/06/18 02:31:05;;;;;;;4.40;3.80;;;17.70;75.60;;;;;;5081740;28;20434;-65
2022/06/18 02:33:37;;;;;;;3.20;2.90;;;17.70;75.60;;;;;;5083133;28;20945;-64
2022/06/18 02:36:14;;;;;;;3.20;2.73;;;17.70;75.70;;;;;;5075492;28;20482;-64
2022/06/18 02:38:42;;;;;;;2.43;2.23;;;17.70;75.80;;;;;;5075104;28;20431;-64
2022/06/18 02:41:10;;;;;;;2.83;2.57;;;17.70;75.90;;;;;;5075940;28;20449;-64
2022/06/18 02:43:41;;;;;;;5.23;4.67;;;17.70;76.10;;;;;;5075753;28;20937;-64
2022/06/18 02:46:10;;;;;;;3.23;2.80;;;17.70;76.10;;;;;;5075771;28;20504;-63
2022/06/18 02:48:38;;;;;;;3.80;2.80;;;17.70;76.10;;;;;;5074856;28;20485;-66
2022/06/18 02:51:07;;;;;;;3.27;2.60;;;17.70;76.00;;;;;;5075408;28;20452;-64
2022/06/18 02:53:35;;;;;;;3.30;3.00;;;17.70;76.10;;;;;;5075379;28;20455;-63
2022/06/18 02:56:04;;;;;;;4.30;2.90;;;17.70;76.00;;;;;;5074741;28;21001;-63
2022/06/18 02:58:35;;;;;;;3.33;3.03;;;17.70;75.90;;;;;;5075520;28;20439;-64
2022/06/18 03:01:07;;;;;;;4.70;2.50;;;17.70;75.90;;;;;;5074884;28;20429;-64
2022/06/18 03:03:39;;;;;;;2.80;2.50;;;17.80;75.90;;;;;;5075104;28;20431;-65
2022/06/18 03:06:08;;;;;;;2.70;2.50;;;17.80;75.80;;;;;;5113463;22;20500;-61
2022/06/18 03:08:37;;;;;;;3.33;2.80;;;17.80;75.70;;;;;;5095118;28;20548;-61
2022/06/18 03:13:51;;;;;;;3.87;3.47;;;17.80;75.90;;;;;;5094769;28;20402;-62
2022/06/18 03:16:22;;;;;;;6.23;2.20;;;17.90;75.90;;;;;;5094071;28;20999;-62
2022/06/18 03:18:51;;;;;;;3.23;2.47;;;17.90;75.80;;;;;;5094564;28;20440;-61
2022/06/18 03:21:24;;;;;;;4.20;3.73;;;17.90;75.90;;;;;;5094517;28;20543;-61
2022/06/18 03:23:52;;;;;;;5.33;2.83;;;17.90;75.90;;;;;;5094344;28;20906;-63
2022/06/18 03:26:19;;;;;;;3.10;2.80;;;18.00;76.10;;;;;;5094359;28;20458;-64
2022/06/18 03:28:47;;;;;;;4.10;3.13;;;18.00;76.00;;;;;;5094121;28;20990;-64
2022/06/18 03:31:15;;;;;;;6.40;3.03;;;18.00;76.50;;;;;;5094414;28;20850;-62
2022/06/18 03:33:43;;;;;;;5.00;2.80;;;18.10;75.80;;;;;;5093945;28;20446;-62
2022/06/18 03:36:12;;;;;;;4.23;2.90;;;18.10;75.70;;;;;;5094300;28;20885;-61
2022/06/18 03:38:40;;;;;;;3.00;2.70;;;18.20;75.50;;;;;;5093928;28;20442;-62
2022/06/18 03:41:08;;;;;;;3.70;2.90;;;18.20;75.20;;;;;;5093800;28;20477;-60
2022/06/18 03:43:35;;;;;;;3.90;2.90;;;18.30;75.10;;;;;;5093844;28;20449;-62
2022/06/18 03:46:07;;;;;;;3.40;2.47;;;18.40;74.90;;;;;;5093590;28;20458;-61
2022/06/18 03:48:42;;;;;;;5.50;2.70;;;18.40;74.40;;;;;;5093251;28;20902;-61
2022/06/18 03:51:12;;;;;;;2.77;2.47;;;18.50;74.10;;;;;;5093409;28;20482;-61
2022/06/18 03:53:40;;;;;;;4.30;2.63;;;18.70;73.80;;;;;;5093599;28;20816;-61
2022/06/18 03:56:08;;;;;;;3.00;2.50;;;19.10;73.00;;;;;;5093559;28;20549;-62
2022/06/18 03:58:35;;;;;;;4.03;2.43;;;19.50;71.20;;;;;;5092986;28;20461;-62
2022/06/18 04:01:03;;;;;;;2.83;2.50;;;20.00;68.90;;;;;;5092820;28;20935;-62
2022/06/18 04:03:30;;;;;;;2.50;1.87;;;20.50;66.70;;;;;;5093041;28;20557;-61
2022/06/18 04:05:58;;;;;;;3.57;2.20;;;20.90;64.50;;;;;;5092885;28;20473;-61
2022/06/18 04:09:54;;;;;;;3.67;2.40;;;21.50;61.10;;;;;;5173115;27;20611;-62
2022/06/18 04:12:21;;;;;;;2.50;2.20;;;21.90;60.20;;;;;;5172674;27;20444;-62
2022/06/18 04:14:48;;;;;;;2.20;2.00;;;22.20;59.00;;;;;;5172687;27;20450;-62
2022/06/18 04:17:17;;;;;;;3.20;2.17;;;22.60;58.10;;;;;;5173069;27;20507;-62
2022/06/18 04:19:44;;;;;;;2.50;2.30;;;22.80;57.20;;;;;;5172815;27;20855;-63
2022/06/18 04:22:11;;;;;;;2.40;2.20;;;23.00;56.50;;;;;;5172642;27;20986;-62
2022/06/18 04:24:39;;;;;;;3.07;2.30;;;23.20;56.00;;;;;;5173147;27;20446;-61
2022/06/18 04:27:07;;;;;;;6.00;2.23;;;23.40;55.40;;;;;;5173070;27;20438;-62
2022/06/18 04:29:35;;;;;;;4.07;2.23;;;23.70;54.50;;;;;;5173384;27;20878;-62
2022/06/18 04:32:04;;;;;;;2.70;2.50;;;24.10;53.90;;;;;;5173898;27;20487;-62
2022/06/18 04:34:31;;;;;;;4.70;2.40;;;24.30;53.00;;;;;;5173631;27;20472;-61
2022/06/18 04:36:58;;;;;;;4.43;2.23;;;24.60;52.30;;;;;;5175263;27;20537;-61
2022/06/18 04:39:26;;;;;;;3.10;2.60;;;24.80;51.90;;;;;;5175295;27;20434;-61
2022/06/18 04:41:53;;;;;;;2.67;2.10;;;25.00;51.40;;;;;;5173225;27;20474;-61
2022/06/18 04:44:22;;;;;;;3.17;2.57;;;25.20;51.00;;;;;;5172428;27;20446;-60
2022/06/18 04:46:49;;;;;;;2.43;2.03;;;25.40;50.40;;;;;;5172092;27;20550;-61
2022/06/18 04:49:16;;;;;;;2.20;2.00;;;25.60;49.90;;;;;;5172287;27;20474;-62
2022/06/18 04:51:44;;;;;;;2.27;2.07;;;25.70;49.40;;;;;;5172381;27;20485;-61
2022/06/18 04:54:11;;;;;;;2.27;2.07;;;25.90;48.90;;;;;;5172218;27;20534;-61
2022/06/18 04:56:39;;;;;;;3.60;2.40;;;26.00;48.60;;;;;;5171940;27;20545;-61
2022/06/18 04:59:07;;;;;;;3.40;2.37;;;26.00;48.40;;;;;;5171946;27;20482;-61
2022/06/18 05:01:35;;;;;;;4.73;2.20;;;26.00;48.10;;;;;;5172398;27;20852;-61
2022/06/18 05:04:03;;;;;;;3.00;2.27;;;26.20;47.90;;;;;;5171781;27;20491;-61
2022/06/18 05:06:30;;;;;;;3.97;2.10;;;26.30;47.50;;;;;;5172016;27;21018;-61
2022/06/18 05:08:58;;;;;;;6.10;2.30;;;26.40;47.20;;;;;;5171668;27;20527;-61
2022/06/18 05:11:25;;;;;;;3.23;2.40;;;26.60;46.90;;;;;;5171864;27;20442;-61
2022/06/18 05:13:52;;;;;;;3.50;1.93;;;26.70;46.60;;;;;;5171613;27;20439;-62
2022/06/18 05:16:19;;;;;;;2.33;2.13;;;26.70;46.30;;;;;;5171599;27;20494;-61
2022/06/18 05:18:48;;;;;;;3.70;2.27;;;26.60;46.60;;;;;;5171651;27;20782;-63
2022/06/18 05:21:16;;;;;;;2.60;2.13;;;26.40;46.80;;;;;;5157464;27;20439;-63
2022/06/18 05:23:43;;;;;;;2.57;2.20;;;26.50;46.80;;;;;;5157532;27;20444;-62
2022/06/18 05:26:15;;;;;;;5.50;2.80;;;26.60;46.70;;;;;;5157322;27;20492;-61
2022/06/18 05:28:42;;;;;;;2.47;2.10;;;26.70;46.50;;;;;;5157213;27;21030;-62
2022/06/18 05:31:09;;;;;;;3.80;2.17;;;26.90;46.30;;;;;;5157465;27;20491;-63
2022/06/18 05:33:37;;;;;;;2.57;2.37;;;26.90;46.30;;;;;;5157204;27;20443;-61
2022/06/18 05:36:10;;;;;;;2.93;1.80;;;27.00;46.30;;;;;;5157200;27;20532;-62
2022/06/18 05:38:37;;;;;;;2.83;1.80;;;27.20;46.00;;;;;;5157530;27;20416;-63
2022/06/18 05:41:04;;;;;;;2.63;1.97;;;27.30;45.80;;;;;;5157205;27;20961;-62
2022/06/18 05:43:32;;;;;;;3.47;2.47;;;27.40;45.70;;;;;;5157465;27;20841;-62
2022/06/18 05:45:59;;;;;;;2.07;1.87;;;27.40;45.60;;;;;;5157254;27;20463;-63
2022/06/18 05:48:26;;;;;;;2.90;2.27;;;27.40;45.80;;;;;;5157208;27;20471;-63
2022/06/18 05:50:54;;;;;;;3.60;3.30;;;27.40;45.70;;;;;;5157686;27;20447;-62
2022/06/18 05:53:22;;;;;;;2.60;1.90;;;27.60;45.40;;;;;;5157502;27;20472;-62
2022/06/18 05:55:50;;;;;;;2.90;2.70;;;27.80;45.10;;;;;;5156884;27;20455;-62
2022/06/18 05:58:17;;;;;;;2.10;1.90;;;27.80;44.90;;;;;;5157146;27;20499;-62
2022/06/18 06:00:44;;;;;;;5.10;3.30;;;27.90;44.90;;;;;;5157103;27;20455;-63
2022/06/18 06:03:12;;;;;;;2.50;2.20;;;27.90;44.80;;;;;;5157100;27;20492;-61
2022/06/18 06:05:39;;;;;;;3.00;2.00;;;28.00;44.80;;;;;;5156636;27;20547;-62
2022/06/18 06:08:07;;;;;;;4.00;3.70;;;28.00;44.70;;;;;;5156461;27;20491;-63
2022/06/18 06:13:22;;;;;;;3.10;2.20;;;28.20;44.60;;;;;;5156751;27;20548;-63
2022/06/18 06:15:50;;;;;;;3.23;2.00;;;28.20;44.40;;;;;;5156773;27;20470;-62
2022/06/18 06:18:20;;;;;;;2.70;2.30;;;28.30;44.40;;;;;;5156822;27;20785;-63
2022/06/18 06:20:50;;;;;;;4.20;2.20;;;28.20;44.60;;;;;;5157319;27;20526;-62
2022/06/18 06:23:17;;;;;;;3.60;2.30;;;28.10;44.70;;;;;;5157235;27;20467;-63
2022/06/18 06:25:48;;;;;;;3.27;2.97;;;28.00;44.80;;;;;;5156444;27;20523;-61
2022/06/18 06:28:17;;;;;;;2.80;2.40;;;27.90;45.10;;;;;;5156442;27;20519;-62
2022/06/18 06:30:44;;;;;;;3.53;2.27;;;27.70;45.20;;;;;;5156290;27;20443;-62
2022/06/18 06:33:11;;;;;;;4.80;3.57;;;27.60;45.50;;;;;;5155977;27;20489;-61
2022/06/18 06:35:39;;;;;;;4.47;2.43;;;27.40;45.70;;;;;;5156043;27;20516;-64
2022/06/18 06:38:07;;;;;;;4.23;2.63;;;27.30;45.60;;;;;;5156345;27;20522;-63
2022/06/18 06:40:36;;;;;;;3.77;2.97;;;27.30;45.60;;;;;;5155914;27;20831;-63
2022/06/18 06:43:07;;;;;;;4.80;2.90;;;27.20;45.80;;;;;;5155990;27;20538;-64
2022/06/18 06:45:35;;;;;;;5.37;4.87;;;27.10;46.10;;;;;;5156176;27;20493;-64
2022/06/18 06:48:03;;;;;;;2.83;2.57;;;27.10;46.30;;;;;;5156285;27;20448;-62
2022/06/18 06:50:31;;;;;;;4.03;2.90;;;27.10;46.40;;;;;;5156263;27;20535;-63
2022/06/18 06:52:59;;;;;;;4.77;3.03;;;27.10;46.50;;;;;;5156202;27;20476;-63
2022/06/18 06:58:13;;;;;;;3.70;2.80;;;27.20;46.60;;;;;;5155780;27;20403;-63
2022/06/18 07:00:44;;;;;;;3.10;2.77;;;27.30;46.60;;;;;;5156382;27;20456;-62
2022/06/18 07:03:13;;;;;;;3.80;3.30;;;27.30;46.70;;;;;;5156211;27;20432;-62
2022/06/18 07:05:40;;;;;;;3.80;3.00;;;27.20;46.90;;;;;;5155679;27;21022;-62
2022/06/18 07:08:08;;;;;;;4.10;2.90;;;27.30;47.20;;;;;;5155490;27;20455;-61
2022/06/18 07:10:35;;;;;;;4.40;3.30;;;27.40;47.20;;;;;;5156075;27;20475;-62
2022/06/18 07:13:02;;;;;;;4.60;3.20;;;27.50;47.10;;;;;;5155708;27;20447;-63
2022/06/18 07:15:31;;;;;;;5.70;3.83;;;27.50;47.10;;;;;;5155648;27;20467;-62
2022/06/18 07:17:59;;;;;;;7.67;4.07;;;27.50;47.20;;;;;;5156567;27;20500;-62
2022/06/18 07:20:27;;;;;;;7.23;3.50;;;27.50;47.20;;;;;;5157797;27;20488;-62
2022/06/18 07:22:56;;;;;;;5.80;3.90;;;27.40;47.40;;;;;;5157591;27;20526;-62
2022/06/18 07:25:23;;;;;;;6.40;3.60;;;27.30;47.50;;;;;;5156651;27;20520;-62
2022/06/18 07:27:52;;;;;;;4.90;3.80;;;27.30;47.60;;;;;;5155721;27;20440;-62
2022/06/18 07:30:21;;;;;;;4.27;3.87;;;27.20;47.80;;;;;;5155127;27;20482;-63
2022/06/18 07:32:50;;;;;;;7.13;4.10;;;27.20;48.00;;;;;;5155278;27;20444;-61
2022/06/18 07:35:21;;;;;;;6.73;3.70;;;27.20;48.00;;;;;;5155311;27;20491;-62
2022/06/18 07:37:49;;;;;;;5.50;3.60;;;27.30;48.00;;;;;;5155250;27;20497;-62
2022/06/18 07:40:17;;;;;;;6.70;4.00;;;27.30;47.70;;;;;;5156082;27;20458;-62
2022/06/18 07:42:46;;;;;;;4.00;3.63;;;27.40;47.80;;;;;;5155596;27;20516;-62
2022/06/18 07:45:19;;;;;;;3.90;3.57;;;27.50;47.70;;;;;;5155197;27;20512;-62
2022/06/18 07:47:46;;;;;;;7.10;3.60;;;27.60;47.60;;;;;;5155500;27;20471;-62
2022/06/18 07:50:17;;;;;;;7.50;3.83;;;27.60;47.60;;;;;;5155422;27;20569;-62
2022/06/18 07:52:45;;;;;;;4.13;3.20;;;27.60;47.70;;;;;;5155372;27;20489;-63
2022/06/18 07:55:15;;;;;;;4.00;3.23;;;27.60;47.70;;;;;;5154575;27;20466;-60
2022/06/18 07:57:43;;;;;;;4.93;3.60;;;27.70;47.80;;;;;;5154612;27;20430;-61
2022/06/18 08:00:12;;;;;;;8.40;3.50;;;27.80;47.90;;;;;;5154599;27;20913;-62
2022/06/18 08:02:40;;;;;;;3.83;3.40;;;28.00;47.80;;;;;;5154561;27;20534;-62
2022/06/18 08:05:08;;;;;;;5.20;4.00;;;28.10;47.80;;;;;;5154486;27;20459;-62
2022/06/18 08:07:37;;;;;;;4.30;3.90;;;28.20;47.80;;;;;;5154345;27;20443;-63
2022/06/18 08:10:05;;;;;;;6.53;3.37;;;28.20;47.90;;;;;;5154297;27;20547;-62
2022/06/18 08:12:33;;;;;;;4.40;3.70;;;28.20;47.80;;;;;;5154450;27;20444;-62
2022/06/18 08:15:01;;;;;;;7.30;3.97;;;28.40;47.70;;;;;;5154737;27;20527;-62
2022/06/18 08:17:28;;;;;;;5.40;3.37;;;28.40;47.60;;;;;;5154597;27;20910;-63
2022/06/18 08:19:55;;;;;;;5.87;3.83;;;28.40;47.50;;;;;;5154725;27;20432;-63
2022/06/18 08:22:23;;;;;;;7.20;4.40;;;28.50;47.50;;;;;;5154792;27;20500;-61
2022/06/18 08:24:53;;;;;;;6.23;3.87;;;28.50;47.40;;;;;;5154329;27;20563;-62
2022/06/18 08:27:21;;;;;;;6.13;4.10;;;28.50;47.20;;;;;;5154456;27;20479;-62
2022/06/18 08:29:49;;;;;;;5.40;4.43;;;28.60;47.20;;;;;;5154586;27;20482;-62
2022/06/18 08:32:16;;;;;;;7.40;4.33;;;28.50;47.30;;;;;;5154356;27;20443;-61
2022/06/18 08:34:44;;;;;;;4.63;3.87;;;28.60;47.50;;;;;;5154548;27;20440;-62
2022/06/18 08:37:11;;;;;;;6.00;3.90;;;28.70;47.40;;;;;;5154408;27;20500;-63
2022/06/18 08:39:40;;;;;;;5.20;3.83;;;28.90;47.30;;;;;;5154591;27;20527;-63
2022/06/18 08:42:30;;;;;;;7.37;4.00;;;28.90;47.20;;;;;;5154643;27;20447;-62
2022/06/18 08:45:17;;;;;;;4.37;3.37;;;28.90;47.40;;;;;;5154385;27;20460;-62
2022/06/18 08:47:56;;;;;;;4.77;4.13;;;29.10;47.30;;;;;;5154685;27;20463;-62
2022/06/18 08:50:47;;;;;;;4.63;4.20;;;29.20;47.00;;;;;;5154151;27;20455;-62
2022/06/18 08:53:45;;;;;;;5.00;4.13;;;29.30;47.00;;;;;;5154641;27;20428;-62
2022/06/18 08:56:16;;;;;;;6.67;4.20;;;29.40;47.00;;;;;;5157613;27;20484;-62
2022/06/18 08:58:57;;;;;;;6.53;4.40;;;29.40;46.90;;;;;;5158444;27;20452;-63
2022/06/18 09:01:29;;;;;;;4.40;4.00;;;29.40;46.90;;;;;;5158202;27;20439;-62
2022/06/18 09:04:14;;;;;;;5.03;4.30;;;29.30;46.90;;;;;;5159152;27;20431;-62
2022/06/18 09:07:06;;;;;;;5.97;4.47;;;29.40;46.80;;;;;;5128497;22;20495;-62
2022/06/18 09:09:40;;;;;;;6.50;4.37;;;29.50;46.60;;;;;;5072793;28;21000;-63
2022/06/18 09:12:11;;;;;;;9.00;4.77;;;29.60;46.50;;;;;;5076505;28;20430;-63
2022/06/18 09:14:46;;;;;;;7.60;4.33;;;29.60;46.30;;;;;;5076237;28;20431;-63
2022/06/18 09:17:19;;;;;;;8.10;4.50;;;29.60;46.20;;;;;;5076349;28;20470;-63
2022/06/18 09:19:55;;;;;;;6.90;4.90;;;29.60;46.30;;;;;;5079578;28;20887;-63
2022/06/18 09:22:22;;;;;;;5.77;4.70;;;29.60;46.50;;;;;;5086236;28;20964;-63
2022/06/18 09:24:55;;;;;;;7.87;4.97;;;29.50;46.70;;;;;;5088196;28;20928;-63
2022/06/18 09:27:25;;;;;;;6.03;4.30;;;29.50;46.90;;;;;;5078295;28;20477;-63
2022/06/18 09:30:02;;;;;;;5.20;4.20;;;29.60;47.00;;;;;;5078892;28;20989;-63
2022/06/18 09:32:36;;;;;;;7.27;4.40;;;29.70;47.10;;;;;;5077848;28;20442;-62
2022/06/18 09:35:12;;;;;;;15.00;5.17;;;29.80;47.00;;;;;;5078515;28;20477;-62
2022/06/18 09:37:44;;;;;;;5.00;4.60;;;29.80;46.90;;;;;;5077755;28;20431;-62
2022/06/18 09:40:17;;;;;;;5.53;4.80;;;30.00;47.00;;;;;;5078008;28;20830;-64
2022/06/18 09:42:50;;;;;;;6.33;4.60;;;30.00;46.90;;;;;;5077356;28;20436;-63
2022/06/18 09:45:25;;;;;;;5.33;4.70;;;30.10;46.80;;;;;;5076303;28;20463;-63
2022/06/18 09:47:53;;;;;;;5.23;4.17;;;30.20;46.80;;;;;;5075867;28;20476;-62
2022/06/18 09:50:26;;;;;;;7.97;4.80;;;30.20;46.80;;;;;;5075329;28;20483;-63
2022/06/18 09:53:00;;;;;;;8.30;4.20;;;30.30;46.90;;;;;;5076049;28;20489;-61
2022/06/18 09:55:35;;;;;;;7.60;4.50;;;30.40;46.70;;;;;;5076639;28;20459;-63
2022/06/18 09:58:07;;;;;;;5.63;4.27;;;30.50;46.30;;;;;;5076841;28;20477;-63
2022/06/18 10:00:37;;;;;;;6.00;4.43;;;30.70;46.00;;;;;;5076448;28;20952;-62
2022/06/18 10:03:14;;;;;;;6.30;4.80;;;30.80;45.30;;;;;;5076990;28;20473;-62
2022/06/18 10:08:33;;;;;;;8.90;4.53;;;30.80;45.10;;;;;;5076575;28;20490;-61
2022/06/18 10:11:08;;;;;;;8.97;5.20;;;30.80;45.10;;;;;;5076899;28;20471;-63
2022/06/18 10:13:41;;;;;;;8.40;4.53;;;30.80;45.00;;;;;;5077460;28;20427;-62
2022/06/18 10:16:23;;;;;;;6.37;5.13;;;30.90;45.00;;;;;;5077234;28;20459;-66
2022/06/18 10:19:00;;;;;;;5.27;4.20;;;31.00;44.60;;;;;;5078986;28;20435;-64
2022/06/18 10:21:39;;;;;;;9.73;4.30;;;30.90;44.40;;;;;;5076446;28;20477;-63
2022/06/18 10:24:12;;;;;;;8.63;4.50;;;31.00;44.30;;;;;;5076377;28;20459;-63
2022/06/18 10:26:44;;;;;;;6.50;4.70;;;31.00;44.30;;;;;;5076053;28;20495;-62
2022/06/18 10:29:19;;;;;;;7.37;4.83;;;31.00;44.30;;;;;;5077265;28;20424;-63
2022/06/18 10:32:00;;;;;;;6.53;4.20;;;30.90;44.20;;;;;;5076271;28;20419;-62
2022/06/18 10:34:40;;;;;;;6.57;4.97;;;30.80;44.00;;;;;;5075793;28;20431;-64
2022/06/18 10:37:15;;;;;;;9.23;4.80;;;31.00;44.00;;;;;;5076738;28;20459;-61
2022/06/18 10:39:52;;;;;;;8.60;4.00;;;31.00;43.70;;;;;;5076398;28;20458;-64
2022/06/18 10:42:32;;;;;;;11.53;5.27;;;31.10;43.50;;;;;;5074861;28;20587;-63
2022/06/18 10:45:10;;;;;;;5.83;5.00;;;31.20;43.30;;;;;;5074386;28;20427;-63
2022/06/18 10:47:42;;;;;;;5.47;4.67;;;31.20;43.30;;;;;;5074787;28;20501;-63
2022/06/18 10:50:13;;;;;;;8.00;4.73;;;31.20;43.30;;;;;;5073836;28;20471;-63
2022/06/18 10:52:42;;;;;;;10.47;5.00;;;31.20;43.40;;;;;;5074412;28;20518;-63
2022/06/18 10:55:15;;;;;;;5.20;4.70;;;31.10;43.70;;;;;;5074137;28;20906;-63
2022/06/18 10:57:43;;;;;;;7.10;4.90;;;31.30;43.70;;;;;;5073972;28;20510;-62
2022/06/18 11:00:14;;;;;;;7.90;4.63;;;31.40;43.40;;;;;;5074248;28;20508;-62
2022/06/18 11:02:43;;;;;;;9.37;5.07;;;31.30;43.10;;;;;;5075045;28;20458;-62
2022/06/18 11:05:26;;;;;;;10.67;4.67;;;31.30;43.10;;;;;;5074237;28;20558;-63
2022/06/18 11:07:54;;;;;;;5.90;4.40;;;31.40;43.10;;;;;;5074704;28;20447;-63
2022/06/18 11:10:27;;;;;;;6.60;4.87;;;31.50;42.90;;;;;;5074267;28;20486;-62
2022/06/18 11:13:00;;;;;;;7.90;5.07;;;31.50;42.60;;;;;;5073816;28;20463;-63
2022/06/18 11:15:30;;;;;;;5.83;4.30;;;31.50;42.40;;;;;;5073732;28;20521;-64
2022/06/18 11:17:59;;;;;;;7.87;4.50;;;31.50;42.00;;;;;;5073099;28;20983;-62
2022/06/18 11:20:29;;;;;;;9.10;4.37;;;31.50;41.80;;;;;;5073852;28;20435;-62
2022/06/18 11:23:00;;;;;;;15.37;4.33;;;31.50;41.60;;;;;;5073823;28;20494;-61
2022/06/18 11:25:31;;;;;;;12.53;5.07;;;31.60;41.60;;;;;;5074211;28;20530;-62
2022/06/18 11:28:02;;;;;;;7.70;4.23;;;31.50;41.60;;;;;;5075414;28;20428;-60
2022/06/18 11:30:34;;;;;;;7.93;4.57;;;31.70;41.60;;;;;;5073817;28;20466;-63
2022/06/18 11:33:04;;;;;;;7.20;5.13;;;31.60;41.40;;;;;;5074077;28;20431;-62
2022/06/18 11:35:37;;;;;;;7.30;4.90;;;31.70;41.40;;;;;;5074597;28;20459;-61
2022/06/18 11:38:06;;;;;;;6.83;5.07;;;31.80;41.50;;;;;;5073144;28;20517;-61
2022/06/18 11:40:34;;;;;;;10.30;5.20;;;31.80;41.70;;;;;;5078743;28;20443;-64
2022/06/18 11:43:09;;;;;;;7.23;4.50;;;31.80;41.80;;;;;;5078569;28;20447;-64
2022/06/18 11:45:42;;;;;;;8.43;4.87;;;32.00;41.70;;;;;;5073589;28;20520;-62
2022/06/18 11:48:24;;;;;;;11.90;5.07;;;32.00;41.60;;;;;;5072941;28;20972;-62
2022/06/18 11:50:57;;;;;;;6.60;4.60;;;32.00;41.50;;;;;;5072841;28;20463;-63
2022/06/18 11:53:30;;;;;;;8.40;5.43;;;32.00;41.00;;;;;;5073013;28;20580;-62
2022/06/18 11:55:59;;;;;;;9.23;5.27;;;32.10;40.80;;;;;;5073295;28;20901;-63
2022/06/18 11:58:34;;;;;;;9.50;4.87;;;32.30;40.50;;;;;;5073235;28;20443;-63
2022/06/18 12:01:11;;;;;;;10.97;4.87;;;32.70;40.10;;;;;;5073179;28;20427;-64
2022/06/18 12:03:45;;;;;;;5.30;4.47;;;33.20;39.60;;;;;;5072731;28;20478;-63
2022/06/18 12:06:18;;;;;;;7.47;4.87;;;33.70;38.80;;;;;;5072533;28;20581;-63
2022/06/18 12:08:46;;;;;;;8.13;5.00;;;34.00;38.50;;;;;;5072971;28;20434;-63
2022/06/18 12:11:31;;;;;;;9.60;5.37;;;34.40;38.00;;;;;;5073239;28;20534;-63
2022/06/18 12:14:05;;;;;;;8.57;4.80;;;34.70;37.20;;;;;;5073133;28;20481;-62
2022/06/18 12:16:39;;;;;;;8.10;4.93;;;34.70;36.80;;;;;;5073106;28;20926;-63
2022/06/18 12:19:15;;;;;;;9.57;5.47;;;34.70;36.70;;;;;;5072814;28;20431;-62
2022/06/18 12:21:48;;;;;;;8.53;5.77;;;34.40;36.80;;;;;;5073059;28;20484;-64
2022/06/18 12:24:23;;;;;;;9.97;5.17;;;34.30;37.20;;;;;;5073102;28;20906;-62
2022/06/18 12:27:03;;;;;;;10.47;5.63;;;34.30;37.30;;;;;;5072413;28;20512;-63
2022/06/18 12:29:46;;;;;;;9.30;4.93;;;34.30;37.20;;;;;;5072811;28;20910;-63
2022/06/18 12:32:21;;;;;;;7.87;4.77;;;34.50;37.10;;;;;;5076556;28;20950;-63
2022/06/18 12:35:00;;;;;;;6.67;5.17;;;34.70;36.90;;;;;;5076676;28;20430;-64
2022/06/18 12:37:39;;;;;;;5.50;4.97;;;34.80;36.80;;;;;;5076645;28;20435;-63
2022/06/18 12:40:14;;;;;;;5.80;5.20;;;34.90;37.40;;;;;;5077024;28;20802;-63
2022/06/18 12:42:46;;;;;;;10.07;5.23;;;34.80;36.90;;;;;;5076982;28;20438;-63
2022/06/18 12:45:19;;;;;;;14.23;5.47;;;34.50;37.40;;;;;;5076794;28;20546;-62
2022/06/18 12:47:59;;;;;;;7.33;5.03;;;34.00;37.90;;;;;;5077038;28;20430;-62
2022/06/18 12:50:38;;;;;;;7.70;5.80;;;33.80;38.50;;;;;;5076734;28;20549;-63
2022/06/18 12:53:16;;;;;;;11.20;5.33;;;33.60;38.60;;;;;;5076977;28;20451;-62
2022/06/18 12:55:48;;;;;;;11.90;5.80;;;33.20;38.70;;;;;;5077581;28;20459;-63
2022/06/18 12:58:26;;;;;;;7.40;5.03;;;33.00;39.30;;;;;;5079647;28;20423;-63
2022/06/18 13:00:57;;;;;;;10.50;5.30;;;32.90;39.60;;;;;;5077501;28;20434;-65
2022/06/18 13:03:41;;;;;;;8.43;4.83;;;32.80;39.80;;;;;;5077552;28;20506;-63
2022/06/18 13:06:20;;;;;;;10.20;5.87;;;32.80;39.80;;;;;;5077628;28;20478;-62
2022/06/18 13:08:56;;;;;;;10.60;5.33;;;32.70;39.80;;;;;;5076536;28;20470;-63
2022/06/18 13:11:33;;;;;;;8.50;5.40;;;32.60;40.00;;;;;;5076616;28;20466;-64
2022/06/18 13:14:13;;;;;;;10.73;5.50;;;32.60;40.00;;;;;;5076970;28;20427;-63
2022/06/18 13:16:45;;;;;;;8.43;5.77;;;32.70;39.90;;;;;;5076328;28;20485;-61
2022/06/18 13:19:19;;;;;;;8.40;5.00;;;32.80;39.40;;;;;;5076588;28;20823;-63